sensor_id;sensor_type;location;lat;lon;timestamp;temperature;humidity
8475;DHT22;4274;52.012;8.448;2023-05-29T00:02:07;11.20;99.90
8475;DHT22;4274;52.012;8.448;2023-05-29T00:04:33;11.10;99.90
8475;DHT22;4274;52.012;8.448;2023-05-29T00:06:58;11.10;99.90
8475;DHT22;4274;52.012;8.448;2023-05-29T00:09:24;11.00;99.90
8475;DHT22;4274;52.012;8.448;2023-05-29T00:11:50;11.00;99.90
8475;DHT22;4274;52.012;8.448;2023-05-29T00:14:18;11.00;99.90
8475;DHT22;4274;52.012;8.448;2023-05-29T00:16:45;10.90;99.90
8475;DHT22;4274;52.012;8.448;2023-05-29T00:19:12;10.80;99.90
8475;DHT22;4274;52.012;8.448;2023-05-29T00:21:39;10.80;99.90
8475;DHT22;4274;52.012;8.448;2023-05-29T00:24:05;10.80;99.90
8475;DHT22;4274;52.012;8.448;2023-05-29T00:26:30;10.80;99.90
8475;DHT22;4274;52.012;8.448;2023-05-29T00:28:56;10.80;99.90
8475;DHT22;4274;52.012;8.448;2023-05-29T00:31:21;10.70;99.90
8475;DHT22;4274;52.012;8.448;2023-05-29T00:33:47;10.60;99.90
8475;DHT22;4274;52.012;8.448;2023-05-29T00:36:13;10.60;99.90
8475;DHT22;4274;52.012;8.448;2023-05-29T00:38:38;10.50;99.90
8475;DHT22;4274;52.012;8.448;2023-05-29T00:41:05;10.50;99.90
8475;DHT22;4274;52.012;8.448;2023-05-29T00:43:30;10.40;99.90
8475;DHT22;4274;52.012;8.448;2023-05-29T00:45:56;10.40;99.90
8475;DHT22;4274;52.012;8.448;2023-05-29T00:48:22;10.40;99.90
8475;DHT22;4274;52.012;8.448;2023-05-29T00:50:48;10.30;99.90
8475;DHT22;4274;52.012;8.448;2023-05-29T00:53:14;10.30;99.90
8475;DHT22;4274;52.012;8.448;2023-05-29T00:55:39;10.30;99.90
8475;DHT22;4274;52.012;8.448;2023-05-29T00:58:05;10.30;99.90
8475;DHT22;4274;52.012;8.448;2023-05-29T01:00:31;10.20;99.90
8475;DHT22;4274;52.012;8.448;2023-05-29T01:02:58;10.20;99.90
8475;DHT22;4274;52.012;8.448;2023-05-29T01:05:28;10.20;99.90
8475;DHT22;4274;52.012;8.448;2023-05-29T01:07:54;10.10;99.90
8475;DHT22;4274;52.012;8.448;2023-05-29T01:10:19;10.10;99.90
8475;DHT22;4274;52.012;8.448;2023-05-29T01:13:06;10.10;99.90
8475;DHT22;4274;52.012;8.448;2023-05-29T01:15:58;10.00;99.90
8475;DHT22;4274;52.012;8.448;2023-05-29T01:21:00;10.00;99.90
8475;DHT22;4274;52.012;8.448;2023-05-29T01:29:08;9.90;99.90
8475;DHT22;4274;52.012;8.448;2023-05-29T01:31:36;9.80;99.90
8475;DHT22;4274;52.012;8.448;2023-05-29T01:34:02;9.80;99.90
8475;DHT22;4274;52.012;8.448;2023-05-29T01:36:28;9.80;99.90
8475;DHT22;4274;52.012;8.448;2023-05-29T01:38:56;9.70;99.90
8475;DHT22;4274;52.012;8.448;2023-05-29T01:41:23;9.70;99.90
8475;DHT22;4274;52.012;8.448;2023-05-29T01:43:49;9.70;99.90
8475;DHT22;4274;52.012;8.448;2023-05-29T01:46:16;9.70;99.90
8475;DHT22;4274;52.012;8.448;2023-05-29T01:48:42;9.70;99.90
8475;DHT22;4274;52.012;8.448;2023-05-29T01:51:09;9.70;99.90
8475;DHT22;4274;52.012;8.448;2023-05-29T01:53:37;9.60;99.90
8475;DHT22;4274;52.012;8.448;2023-05-29T01:56:03;9.60;99.90
8475;DHT22;4274;52.012;8.448;2023-05-29T01:58:30;9.60;99.90
8475;DHT22;4274;52.012;8.448;2023-05-29T02:00:57;9.60;99.90
8475;DHT22;4274;52.012;8.448;2023-05-29T02:03:23;9.50;99.90
8475;DHT22;4274;52.012;8.448;2023-05-29T02:05:49;9.50;99.90
8475;DHT22;4274;52.012;8.448;2023-05-29T02:08:15;9.50;99.90
8475;DHT22;4274;52.012;8.448;2023-05-29T02:10:41;9.40;99.90
8475;DHT22;4274;52.012;8.448;2023-05-29T02:13:06;9.40;99.90
8475;DHT22;4274;52.012;8.448;2023-05-29T02:15:32;9.30;99.90
8475;DHT22;4274;52.012;8.448;2023-05-29T02:17:57;9.30;99.90
8475;DHT22;4274;52.012;8.448;2023-05-29T02:20:26;9.30;99.90
8475;DHT22;4274;52.012;8.448;2023-05-29T02:22:52;9.30;99.90
8475;DHT22;4274;52.012;8.448;2023-05-29T02:25:18;9.30;99.90
8475;DHT22;4274;52.012;8.448;2023-05-29T02:27:43;9.30;99.90
8475;DHT22;4274;52.012;8.448;2023-05-29T02:30:09;9.30;99.90
8475;DHT22;4274;52.012;8.448;2023-05-29T02:32:36;9.30;99.90
8475;DHT22;4274;52.012;8.448;2023-05-29T02:35:02;9.30;99.90
8475;DHT22;4274;52.012;8.448;2023-05-29T02:37:27;9.30;99.90
8475;DHT22;4274;52.012;8.448;2023-05-29T02:39:53;9.30;99.90
8475;DHT22;4274;52.012;8.448;2023-05-29T02:42:18;9.30;99.90
8475;DHT22;4274;52.012;8.448;2023-05-29T02:44:44;9.30;99.90
8475;DHT22;4274;52.012;8.448;2023-05-29T02:47:10;9.30;99.90
8475;DHT22;4274;52.012;8.448;2023-05-29T02:49:35;9.30;99.90
8475;DHT22;4274;52.012;8.448;2023-05-29T02:52:01;9.20;99.90
8475;DHT22;4274;52.012;8.448;2023-05-29T02:54:26;9.20;99.90
8475;DHT22;4274;52.012;8.448;2023-05-29T02:56:52;9.20;99.90
8475;DHT22;4274;52.012;8.448;2023-05-29T02:59:18;9.10;99.90
8475;DHT22;4274;52.012;8.448;2023-05-29T03:01:44;9.10;99.90
8475;DHT22;4274;52.012;8.448;2023-05-29T03:04:10;9.10;99.90
8475;DHT22;4274;52.012;8.448;2023-05-29T03:06:36;9.10;99.90
8475;DHT22;4274;52.012;8.448;2023-05-29T03:09:03;9.10;99.90
8475;DHT22;4274;52.012;8.448;2023-05-29T03:11:31;9.00;99.90
8475;DHT22;4274;52.012;8.448;2023-05-29T03:13:56;9.00;99.90
8475;DHT22;4274;52.012;8.448;2023-05-29T03:16:22;9.00;99.90
8475;DHT22;4274;52.012;8.448;2023-05-29T03:18:47;9.00;99.90
8475;DHT22;4274;52.012;8.448;2023-05-29T03:21:13;9.00;99.90
8475;DHT22;4274;52.012;8.448;2023-05-29T03:23:39;9.00;99.90
8475;DHT22;4274;52.012;8.448;2023-05-29T03:26:04;9.00;99.90
8475;DHT22;4274;52.012;8.448;2023-05-29T03:28:31;8.90;99.90
8475;DHT22;4274;52.012;8.448;2023-05-29T03:30:57;8.90;99.90
8475;DHT22;4274;52.012;8.448;2023-05-29T03:33:22;9.00;99.90
8475;DHT22;4274;52.012;8.448;2023-05-29T03:35:48;9.00;99.90
8475;DHT22;4274;52.012;8.448;2023-05-29T03:38:14;9.00;99.90
8475;DHT22;4274;52.012;8.448;2023-05-29T03:40:39;9.00;99.90
8475;DHT22;4274;52.012;8.448;2023-05-29T03:43:05;9.10;99.90
8475;DHT22;4274;52.012;8.448;2023-05-29T03:45:31;9.10;99.90
8475;DHT22;4274;52.012;8.448;2023-05-29T03:47:56;9.10;99.90
8475;DHT22;4274;52.012;8.448;2023-05-29T03:50:22;9.10;99.90
8475;DHT22;4274;52.012;8.448;2023-05-29T03:52:47;9.10;99.90
8475;DHT22;4274;52.012;8.448;2023-05-29T03:55:13;9.10;99.90
8475;DHT22;4274;52.012;8.448;2023-05-29T03:57:40;9.10;99.90
8475;DHT22;4274;52.012;8.448;2023-05-29T04:00:09;9.20;99.90
8475;DHT22;4274;52.012;8.448;2023-05-29T04:02:38;9.20;99.90
8475;DHT22;4274;52.012;8.448;2023-05-29T04:05:05;9.20;99.90
8475;DHT22;4274;52.012;8.448;2023-05-29T04:07:35;9.30;99.90
8475;DHT22;4274;52.012;8.448;2023-05-29T04:10:05;9.30;99.90
8475;DHT22;4274;52.012;8.448;2023-05-29T04:12:32;9.30;99.90
8475;DHT22;4274;52.012;8.448;2023-05-29T04:14:58;9.30;99.90
8475;DHT22;4274;52.012;8.448;2023-05-29T04:17:23;9.20;99.90
8475;DHT22;4274;52.012;8.448;2023-05-29T04:19:49;9.20;99.90
8475;DHT22;4274;52.012;8.448;2023-05-29T04:22:15;9.20;99.90
8475;DHT22;4274;52.012;8.448;2023-05-29T04:24:41;9.20;99.90
8475;DHT22;4274;52.012;8.448;2023-05-29T04:27:09;9.30;99.90
8475;DHT22;4274;52.012;8.448;2023-05-29T04:29:39;9.20;99.90
8475;DHT22;4274;52.012;8.448;2023-05-29T04:32:06;9.20;99.90
8475;DHT22;4274;52.012;8.448;2023-05-29T04:34:33;9.30;99.90
8475;DHT22;4274;52.012;8.448;2023-05-29T04:36:59;9.30;99.90
8475;DHT22;4274;52.012;8.448;2023-05-29T04:39:25;9.30;99.90
8475;DHT22;4274;52.012;8.448;2023-05-29T04:41:51;9.40;99.90
8475;DHT22;4274;52.012;8.448;2023-05-29T04:44:17;9.40;99.90
8475;DHT22;4274;52.012;8.448;2023-05-29T04:46:43;9.40;99.90
8475;DHT22;4274;52.012;8.448;2023-05-29T04:49:10;9.40;99.90
8475;DHT22;4274;52.012;8.448;2023-05-29T04:51:35;9.40;99.90
8475;DHT22;4274;52.012;8.448;2023-05-29T04:54:02;9.40;99.90
8475;DHT22;4274;52.012;8.448;2023-05-29T04:56:27;9.50;99.90
8475;DHT22;4274;52.012;8.448;2023-05-29T04:58:53;9.50;99.90
8475;DHT22;4274;52.012;8.448;2023-05-29T05:01:19;9.60;99.90
8475;DHT22;4274;52.012;8.448;2023-05-29T05:03:45;9.60;99.90
8475;DHT22;4274;52.012;8.448;2023-05-29T05:06:12;9.60;99.90
8475;DHT22;4274;52.012;8.448;2023-05-29T05:08:38;9.70;99.90
8475;DHT22;4274;52.012;8.448;2023-05-29T05:11:04;9.70;99.90
8475;DHT22;4274;52.012;8.448;2023-05-29T05:13:30;9.80;99.90
8475;DHT22;4274;52.012;8.448;2023-05-29T05:15:55;10.00;99.90
8475;DHT22;4274;52.012;8.448;2023-05-29T05:18:21;10.10;99.90
8475;DHT22;4274;52.012;8.448;2023-05-29T05:20:46;10.20;99.90
8475;DHT22;4274;52.012;8.448;2023-05-29T05:23:12;10.40;99.90
8475;DHT22;4274;52.012;8.448;2023-05-29T05:25:38;10.40;99.90
8475;DHT22;4274;52.012;8.448;2023-05-29T05:28:04;10.50;99.90
8475;DHT22;4274;52.012;8.448;2023-05-29T05:30:30;10.60;99.90
8475;DHT22;4274;52.012;8.448;2023-05-29T05:32:56;10.60;99.90
8475;DHT22;4274;52.012;8.448;2023-05-29T05:35:22;10.60;99.90
8475;DHT22;4274;52.012;8.448;2023-05-29T05:37:47;10.70;99.90
8475;DHT22;4274;52.012;8.448;2023-05-29T05:40:13;10.70;99.90
8475;DHT22;4274;52.012;8.448;2023-05-29T05:42:38;10.80;99.90
8475;DHT22;4274;52.012;8.448;2023-05-29T05:45:05;11.00;99.90
8475;DHT22;4274;52.012;8.448;2023-05-29T05:47:32;11.10;99.90
8475;DHT22;4274;52.012;8.448;2023-05-29T05:49:57;11.30;99.90
8475;DHT22;4274;52.012;8.448;2023-05-29T05:52:24;11.40;99.90
8475;DHT22;4274;52.012;8.448;2023-05-29T05:54:50;11.30;99.90
8475;DHT22;4274;52.012;8.448;2023-05-29T05:57:15;11.30;99.90
8475;DHT22;4274;52.012;8.448;2023-05-29T05:59:41;11.40;99.90
8475;DHT22;4274;52.012;8.448;2023-05-29T06:02:07;11.50;99.90
8475;DHT22;4274;52.012;8.448;2023-05-29T06:04:32;11.60;99.90
8475;DHT22;4274;52.012;8.448;2023-05-29T06:06:58;11.80;99.90
8475;DHT22;4274;52.012;8.448;2023-05-29T06:09:23;11.90;99.90
8475;DHT22;4274;52.012;8.448;2023-05-29T06:11:50;12.10;99.90
8475;DHT22;4274;52.012;8.448;2023-05-29T06:14:16;12.20;99.90
8475;DHT22;4274;52.012;8.448;2023-05-29T06:16:42;12.30;99.90
8475;DHT22;4274;52.012;8.448;2023-05-29T06:19:08;12.30;99.90
8475;DHT22;4274;52.012;8.448;2023-05-29T06:21:34;12.30;99.90
8475;DHT22;4274;52.012;8.448;2023-05-29T06:23:59;12.40;99.90
8475;DHT22;4274;52.012;8.448;2023-05-29T06:26:25;12.50;99.90
8475;DHT22;4274;52.012;8.448;2023-05-29T06:28:52;12.60;99.90
8475;DHT22;4274;52.012;8.448;2023-05-29T06:31:18;12.70;99.90
8475;DHT22;4274;52.012;8.448;2023-05-29T06:33:44;12.80;99.90
8475;DHT22;4274;52.012;8.448;2023-05-29T06:36:10;12.80;99.90
8475;DHT22;4274;52.012;8.448;2023-05-29T06:38:36;12.80;99.90
8475;DHT22;4274;52.012;8.448;2023-05-29T06:41:02;12.70;99.90
8475;DHT22;4274;52.012;8.448;2023-05-29T06:43:28;12.60;99.90
8475;DHT22;4274;52.012;8.448;2023-05-29T06:45:54;12.60;99.90
8475;DHT22;4274;52.012;8.448;2023-05-29T06:48:19;12.80;99.90
8475;DHT22;4274;52.012;8.448;2023-05-29T06:50:49;12.90;99.90
8475;DHT22;4274;52.012;8.448;2023-05-29T06:53:15;12.90;99.90
8475;DHT22;4274;52.012;8.448;2023-05-29T06:55:41;12.90;99.90
8475;DHT22;4274;52.012;8.448;2023-05-29T06:58:07;12.90;99.90
8475;DHT22;4274;52.012;8.448;2023-05-29T07:00:32;13.10;99.90
8475;DHT22;4274;52.012;8.448;2023-05-29T07:02:58;13.20;99.90
8475;DHT22;4274;52.012;8.448;2023-05-29T07:05:23;13.20;99.90
8475;DHT22;4274;52.012;8.448;2023-05-29T07:07:49;13.30;99.90
8475;DHT22;4274;52.012;8.448;2023-05-29T07:10:15;13.30;99.90
8475;DHT22;4274;52.012;8.448;2023-05-29T07:12:40;13.50;99.90
8475;DHT22;4274;52.012;8.448;2023-05-29T07:15:06;13.60;99.90
8475;DHT22;4274;52.012;8.448;2023-05-29T07:17:32;13.70;99.90
8475;DHT22;4274;52.012;8.448;2023-05-29T07:19:58;13.80;99.90
8475;DHT22;4274;52.012;8.448;2023-05-29T07:22:23;13.80;99.90
8475;DHT22;4274;52.012;8.448;2023-05-29T07:24:49;13.90;99.90
8475;DHT22;4274;52.012;8.448;2023-05-29T07:27:15;13.90;99.90
8475;DHT22;4274;52.012;8.448;2023-05-29T07:29:41;14.00;99.90
8475;DHT22;4274;52.012;8.448;2023-05-29T07:32:06;14.20;99.90
8475;DHT22;4274;52.012;8.448;2023-05-29T07:34:32;14.30;99.90
8475;DHT22;4274;52.012;8.448;2023-05-29T07:37:04;14.20;99.90
8475;DHT22;4274;52.012;8.448;2023-05-29T07:39:31;14.20;99.90
8475;DHT22;4274;52.012;8.448;2023-05-29T07:41:59;14.30;99.90
8475;DHT22;4274;52.012;8.448;2023-05-29T07:44:25;14.40;99.90
8475;DHT22;4274;52.012;8.448;2023-05-29T07:46:50;14.50;99.90
8475;DHT22;4274;52.012;8.448;2023-05-29T07:49:16;14.60;99.90
8475;DHT22;4274;52.012;8.448;2023-05-29T07:51:41;14.60;99.90
8475;DHT22;4274;52.012;8.448;2023-05-29T07:54:07;14.60;99.90
8475;DHT22;4274;52.012;8.448;2023-05-29T07:56:33;14.60;99.90
8475;DHT22;4274;52.012;8.448;2023-05-29T07:58:59;14.50;99.90
8475;DHT22;4274;52.012;8.448;2023-05-29T08:01:25;14.40;99.90
8475;DHT22;4274;52.012;8.448;2023-05-29T08:03:51;14.60;99.90
8475;DHT22;4274;52.012;8.448;2023-05-29T08:06:17;14.70;99.90
8475;DHT22;4274;52.012;8.448;2023-05-29T08:08:43;14.80;99.90
8475;DHT22;4274;52.012;8.448;2023-05-29T08:11:09;15.00;99.90
8475;DHT22;4274;52.012;8.448;2023-05-29T08:13:35;15.10;99.90
8475;DHT22;4274;52.012;8.448;2023-05-29T08:16:00;15.20;99.90
8475;DHT22;4274;52.012;8.448;2023-05-29T08:18:26;15.50;99.90
8475;DHT22;4274;52.012;8.448;2023-05-29T08:20:52;15.60;99.90
8475;DHT22;4274;52.012;8.448;2023-05-29T08:23:18;15.70;99.90
8475;DHT22;4274;52.012;8.448;2023-05-29T08:25:44;15.80;99.90
8475;DHT22;4274;52.012;8.448;2023-05-29T08:28:10;15.90;99.90
8475;DHT22;4274;52.012;8.448;2023-05-29T08:30:36;16.00;99.90
8475;DHT22;4274;52.012;8.448;2023-05-29T08:33:02;16.10;99.90
8475;DHT22;4274;52.012;8.448;2023-05-29T08:35:28;16.20;99.90
8475;DHT22;4274;52.012;8.448;2023-05-29T08:37:54;16.20;99.90
8475;DHT22;4274;52.012;8.448;2023-05-29T08:40:20;16.30;99.90
8475;DHT22;4274;52.012;8.448;2023-05-29T08:42:57;16.30;99.90
8475;DHT22;4274;52.012;8.448;2023-05-29T08:45:24;16.20;99.90
8475;DHT22;4274;52.012;8.448;2023-05-29T08:47:52;16.10;99.90
8475;DHT22;4274;52.012;8.448;2023-05-29T08:50:20;16.30;99.90
8475;DHT22;4274;52.012;8.448;2023-05-29T08:52:46;16.50;99.90
8475;DHT22;4274;52.012;8.448;2023-05-29T08:55:12;16.70;99.90
8475;DHT22;4274;52.012;8.448;2023-05-29T08:57:38;16.80;99.90
8475;DHT22;4274;52.012;8.448;2023-05-29T09:00:06;16.90;99.90
8475;DHT22;4274;52.012;8.448;2023-05-29T09:02:42;17.00;99.90
8475;DHT22;4274;52.012;8.448;2023-05-29T09:05:11;17.10;99.90
8475;DHT22;4274;52.012;8.448;2023-05-29T09:07:38;17.20;99.90
8475;DHT22;4274;52.012;8.448;2023-05-29T09:10:09;17.10;99.90
8475;DHT22;4274;52.012;8.448;2023-05-29T09:12:35;17.10;99.90
8475;DHT22;4274;52.012;8.448;2023-05-29T09:15:01;17.40;99.90
8475;DHT22;4274;52.012;8.448;2023-05-29T09:17:33;17.40;99.90
8475;DHT22;4274;52.012;8.448;2023-05-29T09:19:59;17.60;99.90
8475;DHT22;4274;52.012;8.448;2023-05-29T09:22:26;17.90;99.90
8475;DHT22;4274;52.012;8.448;2023-05-29T09:24:51;18.20;99.90
8475;DHT22;4274;52.012;8.448;2023-05-29T09:27:18;18.50;99.90
8475;DHT22;4274;52.012;8.448;2023-05-29T09:29:45;18.60;99.90
8475;DHT22;4274;52.012;8.448;2023-05-29T09:32:18;18.60;99.90
8475;DHT22;4274;52.012;8.448;2023-05-29T09:34:44;18.70;99.90
8475;DHT22;4274;52.012;8.448;2023-05-29T09:37:11;19.00;99.90
8475;DHT22;4274;52.012;8.448;2023-05-29T09:39:50;19.30;99.90
8475;DHT22;4274;52.012;8.448;2023-05-29T09:42:17;19.30;99.90
8475;DHT22;4274;52.012;8.448;2023-05-29T09:44:45;19.40;99.90
8475;DHT22;4274;52.012;8.448;2023-05-29T09:47:16;19.60;99.90
8475;DHT22;4274;52.012;8.448;2023-05-29T09:49:42;19.70;99.90
8475;DHT22;4274;52.012;8.448;2023-05-29T09:52:11;19.80;99.90
8475;DHT22;4274;52.012;8.448;2023-05-29T09:54:42;19.80;99.90
8475;DHT22;4274;52.012;8.448;2023-05-29T09:57:14;20.20;99.90
8475;DHT22;4274;52.012;8.448;2023-05-29T09:59:46;20.70;99.90
8475;DHT22;4274;52.012;8.448;2023-05-29T10:02:16;21.10;99.90
8475;DHT22;4274;52.012;8.448;2023-05-29T10:04:43;21.20;99.90
8475;DHT22;4274;52.012;8.448;2023-05-29T10:07:25;21.20;99.90
8475;DHT22;4274;52.012;8.448;2023-05-29T10:09:59;21.50;99.90
8475;DHT22;4274;52.012;8.448;2023-05-29T10:12:27;22.00;99.90
8475;DHT22;4274;52.012;8.448;2023-05-29T10:14:57;22.30;99.20
8475;DHT22;4274;52.012;8.448;2023-05-29T10:17:28;22.70;97.90
8475;DHT22;4274;52.012;8.448;2023-05-29T10:19:58;22.90;98.40
8475;DHT22;4274;52.012;8.448;2023-05-29T10:22:26;23.20;96.70
8475;DHT22;4274;52.012;8.448;2023-05-29T10:24:52;23.10;98.00
8475;DHT22;4274;52.012;8.448;2023-05-29T10:27:18;23.10;96.40
8475;DHT22;4274;52.012;8.448;2023-05-29T10:30:10;23.20;97.70
8475;DHT22;4274;52.012;8.448;2023-05-29T10:32:56;23.00;94.80
8475;DHT22;4274;52.012;8.448;2023-05-29T10:35:51;22.70;95.80
8475;DHT22;4274;52.012;8.448;2023-05-29T10:38:19;22.90;97.20
8475;DHT22;4274;52.012;8.448;2023-05-29T10:40:46;23.20;97.10
8475;DHT22;4274;52.012;8.448;2023-05-29T10:43:32;23.50;96.30
8475;DHT22;4274;52.012;8.448;2023-05-29T10:45:58;24.00;96.10
8475;DHT22;4274;52.012;8.448;2023-05-29T10:50:54;24.60;92.40
8475;DHT22;4274;52.012;8.448;2023-05-29T10:53:24;24.30;93.00
8475;DHT22;4274;52.012;8.448;2023-05-29T10:55:52;24.00;93.60
8475;DHT22;4274;52.012;8.448;2023-05-29T10:58:18;24.10;93.70
8475;DHT22;4274;52.012;8.448;2023-05-29T11:00:46;24.20;91.60
8475;DHT22;4274;52.012;8.448;2023-05-29T11:03:15;23.80;91.60
8475;DHT22;4274;52.012;8.448;2023-05-29T11:08:44;24.40;94.40
8475;DHT22;4274;52.012;8.448;2023-05-29T11:11:15;24.80;92.80
8475;DHT22;4274;52.012;8.448;2023-05-29T11:13:41;25.10;92.90
8475;DHT22;4274;52.012;8.448;2023-05-29T11:18:54;24.60;91.20
8475;DHT22;4274;52.012;8.448;2023-05-29T11:21:52;24.00;91.00
8475;DHT22;4274;52.012;8.448;2023-05-29T11:24:28;24.20;92.00
8475;DHT22;4274;52.012;8.448;2023-05-29T11:26:56;24.30;92.40
8475;DHT22;4274;52.012;8.448;2023-05-29T11:29:29;24.50;91.90
8475;DHT22;4274;52.012;8.448;2023-05-29T11:31:58;24.90;92.60
8475;DHT22;4274;52.012;8.448;2023-05-29T11:34:28;24.90;90.20
8475;DHT22;4274;52.012;8.448;2023-05-29T11:36:56;24.20;91.70
8475;DHT22;4274;52.012;8.448;2023-05-29T11:39:22;24.00;92.30
8475;DHT22;4274;52.012;8.448;2023-05-29T11:41:50;24.40;91.90
8475;DHT22;4274;52.012;8.448;2023-05-29T11:44:17;24.50;89.60
8475;DHT22;4274;52.012;8.448;2023-05-29T11:46:43;23.70;90.20
8475;DHT22;4274;52.012;8.448;2023-05-29T11:49:08;23.30;92.40
8475;DHT22;4274;52.012;8.448;2023-05-29T11:51:34;23.60;93.60
8475;DHT22;4274;52.012;8.448;2023-05-29T11:54:00;24.30;91.00
8475;DHT22;4274;52.012;8.448;2023-05-29T11:56:29;24.20;90.80
8475;DHT22;4274;52.012;8.448;2023-05-29T11:58:58;24.10;91.90
8475;DHT22;4274;52.012;8.448;2023-05-29T12:01:25;24.60;93.30
8475;DHT22;4274;52.012;8.448;2023-05-29T12:03:52;25.20;91.20
8475;DHT22;4274;52.012;8.448;2023-05-29T12:06:33;25.40;89.30
8475;DHT22;4274;52.012;8.448;2023-05-29T12:08:59;24.20;91.00
8475;DHT22;4274;52.012;8.448;2023-05-29T12:11:26;24.00;91.50
8475;DHT22;4274;52.012;8.448;2023-05-29T12:14:01;24.00;91.40
8475;DHT22;4274;52.012;8.448;2023-05-29T12:16:28;23.80;91.00
8475;DHT22;4274;52.012;8.448;2023-05-29T12:18:55;23.80;92.90
8475;DHT22;4274;52.012;8.448;2023-05-29T12:21:22;24.10;92.70
8475;DHT22;4274;52.012;8.448;2023-05-29T12:23:48;24.60;93.20
8475;DHT22;4274;52.012;8.448;2023-05-29T12:26:16;25.00;92.10
8475;DHT22;4274;52.012;8.448;2023-05-29T12:28:44;25.10;90.40
8475;DHT22;4274;52.012;8.448;2023-05-29T12:31:09;24.50;90.90
8475;DHT22;4274;52.012;8.448;2023-05-29T12:33:40;24.50;93.50
8475;DHT22;4274;52.012;8.448;2023-05-29T12:36:08;24.80;93.60
8475;DHT22;4274;52.012;8.448;2023-05-29T12:38:49;25.20;93.10
8475;DHT22;4274;52.012;8.448;2023-05-29T12:41:29;25.60;90.30
8475;DHT22;4274;52.012;8.448;2023-05-29T12:43:56;25.20;90.10
8475;DHT22;4274;52.012;8.448;2023-05-29T12:46:23;24.90;92.60
8475;DHT22;4274;52.012;8.448;2023-05-29T12:48:48;24.90;90.70
8475;DHT22;4274;52.012;8.448;2023-05-29T12:51:17;24.80;90.90
8475;DHT22;4274;52.012;8.448;2023-05-29T12:53:43;24.80;91.40
8475;DHT22;4274;52.012;8.448;2023-05-29T12:56:08;25.10;91.80
8475;DHT22;4274;52.012;8.448;2023-05-29T12:58:34;25.30;91.30
8475;DHT22;4274;52.012;8.448;2023-05-29T13:00:59;25.50;89.00
8475;DHT22;4274;52.012;8.448;2023-05-29T13:03:25;25.00;88.80
8475;DHT22;4274;52.012;8.448;2023-05-29T13:05:51;24.20;89.70
8475;DHT22;4274;52.012;8.448;2023-05-29T13:08:18;23.70;89.50
8475;DHT22;4274;52.012;8.448;2023-05-29T13:10:44;23.20;91.30
8475;DHT22;4274;52.012;8.448;2023-05-29T13:13:10;23.10;92.10
8475;DHT22;4274;52.012;8.448;2023-05-29T13:15:37;23.10;92.60
8475;DHT22;4274;52.012;8.448;2023-05-29T13:18:05;23.00;92.90
8475;DHT22;4274;52.012;8.448;2023-05-29T13:20:31;22.80;90.40
8475;DHT22;4274;52.012;8.448;2023-05-29T13:22:57;22.20;91.90
8475;DHT22;4274;52.012;8.448;2023-05-29T13:25:23;22.00;93.30
8475;DHT22;4274;52.012;8.448;2023-05-29T13:27:49;21.90;91.80
8475;DHT22;4274;52.012;8.448;2023-05-29T13:30:16;21.80;92.00
8475;DHT22;4274;52.012;8.448;2023-05-29T13:32:42;21.70;92.10
8475;DHT22;4274;52.012;8.448;2023-05-29T13:35:08;21.50;91.50
8475;DHT22;4274;52.012;8.448;2023-05-29T13:37:35;20.90;91.60
8475;DHT22;4274;52.012;8.448;2023-05-29T13:40:01;20.70;93.60
8475;DHT22;4274;52.012;8.448;2023-05-29T13:42:27;20.60;92.70
8475;DHT22;4274;52.012;8.448;2023-05-29T13:44:53;20.60;94.40
8475;DHT22;4274;52.012;8.448;2023-05-29T13:47:18;20.80;93.40
8475;DHT22;4274;52.012;8.448;2023-05-29T13:49:45;20.60;92.90
8475;DHT22;4274;52.012;8.448;2023-05-29T13:52:10;20.60;94.70
8475;DHT22;4274;52.012;8.448;2023-05-29T13:54:36;20.70;95.60
8475;DHT22;4274;52.012;8.448;2023-05-29T13:57:02;20.80;94.40
8475;DHT22;4274;52.012;8.448;2023-05-29T13:59:30;20.80;92.10
8475;DHT22;4274;52.012;8.448;2023-05-29T14:01:56;20.50;93.00
8475;DHT22;4274;52.012;8.448;2023-05-29T14:04:21;20.40;91.80
8475;DHT22;4274;52.012;8.448;2023-05-29T14:06:47;20.20;93.60
8475;DHT22;4274;52.012;8.448;2023-05-29T14:09:12;20.30;94.10
8475;DHT22;4274;52.012;8.448;2023-05-29T14:11:39;20.40;93.00
8475;DHT22;4274;52.012;8.448;2023-05-29T14:14:05;20.50;91.50
8475;DHT22;4274;52.012;8.448;2023-05-29T14:16:31;20.50;93.40
8475;DHT22;4274;52.012;8.448;2023-05-29T14:18:57;20.50;91.70
8475;DHT22;4274;52.012;8.448;2023-05-29T14:21:22;20.30;89.10
8475;DHT22;4274;52.012;8.448;2023-05-29T14:23:48;20.10;91.60
8475;DHT22;4274;52.012;8.448;2023-05-29T14:26:14;20.00;89.30
8475;DHT22;4274;52.012;8.448;2023-05-29T14:28:39;19.90;90.10
8475;DHT22;4274;52.012;8.448;2023-05-29T14:31:05;19.90;90.20
8475;DHT22;4274;52.012;8.448;2023-05-29T14:33:31;19.90;90.50
8475;DHT22;4274;52.012;8.448;2023-05-29T14:35:57;19.90;91.70
8475;DHT22;4274;52.012;8.448;2023-05-29T14:38:24;20.00;89.10
8475;DHT22;4274;52.012;8.448;2023-05-29T14:40:50;19.90;85.10
8475;DHT22;4274;52.012;8.448;2023-05-29T14:43:15;19.70;84.60
8475;DHT22;4274;52.012;8.448;2023-05-29T14:45:41;19.40;85.70
8475;DHT22;4274;52.012;8.448;2023-05-29T14:48:06;19.30;86.00
8475;DHT22;4274;52.012;8.448;2023-05-29T14:50:32;19.30;88.00
8475;DHT22;4274;52.012;8.448;2023-05-29T14:52:58;19.20;86.30
8475;DHT22;4274;52.012;8.448;2023-05-29T14:55:23;19.20;86.30
8475;DHT22;4274;52.012;8.448;2023-05-29T14:57:49;19.10;84.10
8475;DHT22;4274;52.012;8.448;2023-05-29T15:00:15;19.20;84.90
8475;DHT22;4274;52.012;8.448;2023-05-29T15:02:40;19.10;86.00
8475;DHT22;4274;52.012;8.448;2023-05-29T15:05:07;19.00;83.20
8475;DHT22;4274;52.012;8.448;2023-05-29T15:07:33;19.00;83.60
8475;DHT22;4274;52.012;8.448;2023-05-29T15:10:04;18.90;86.10
8475;DHT22;4274;52.012;8.448;2023-05-29T15:12:31;19.00;87.10
8475;DHT22;4274;52.012;8.448;2023-05-29T15:14:57;19.10;87.50
8475;DHT22;4274;52.012;8.448;2023-05-29T15:17:22;19.10;84.80
8475;DHT22;4274;52.012;8.448;2023-05-29T15:19:48;19.10;85.80
8475;DHT22;4274;52.012;8.448;2023-05-29T15:22:14;19.20;88.30
8475;DHT22;4274;52.012;8.448;2023-05-29T15:24:39;19.20;88.90
8475;DHT22;4274;52.012;8.448;2023-05-29T15:27:05;19.20;87.60
8475;DHT22;4274;52.012;8.448;2023-05-29T15:29:35;19.20;87.40
8475;DHT22;4274;52.012;8.448;2023-05-29T15:32:02;19.10;89.40
8475;DHT22;4274;52.012;8.448;2023-05-29T15:34:28;19.20;90.50
8475;DHT22;4274;52.012;8.448;2023-05-29T15:36:54;19.20;88.30
8475;DHT22;4274;52.012;8.448;2023-05-29T15:39:20;19.20;85.70
8475;DHT22;4274;52.012;8.448;2023-05-29T15:41:46;19.10;87.20
8475;DHT22;4274;52.012;8.448;2023-05-29T15:44:11;19.00;85.10
8475;DHT22;4274;52.012;8.448;2023-05-29T15:46:37;18.90;87.40
8475;DHT22;4274;52.012;8.448;2023-05-29T15:49:03;18.80;90.50
8475;DHT22;4274;52.012;8.448;2023-05-29T15:51:28;18.80;91.10
8475;DHT22;4274;52.012;8.448;2023-05-29T15:53:54;18.80;91.00
8475;DHT22;4274;52.012;8.448;2023-05-29T15:56:20;18.80;90.70
8475;DHT22;4274;52.012;8.448;2023-05-29T15:58:51;18.80;91.00
8475;DHT22;4274;52.012;8.448;2023-05-29T16:01:17;18.80;90.90
8475;DHT22;4274;52.012;8.448;2023-05-29T16:03:43;18.90;91.30
8475;DHT22;4274;52.012;8.448;2023-05-29T16:06:08;18.80;92.10
8475;DHT22;4274;52.012;8.448;2023-05-29T16:08:34;18.80;92.40
8475;DHT22;4274;52.012;8.448;2023-05-29T16:10:59;18.80;92.60
8475;DHT22;4274;52.012;8.448;2023-05-29T16:13:26;18.90;91.00
8475;DHT22;4274;52.012;8.448;2023-05-29T16:15:52;18.80;90.20
8475;DHT22;4274;52.012;8.448;2023-05-29T16:18:17;18.80;91.40
8475;DHT22;4274;52.012;8.448;2023-05-29T16:20:43;18.80;91.60